createdAt,value
2022-09-28T00:01:25.034Z,100.00
2022-09-28T00:04:00.329Z,100.00
2022-09-28T00:06:30.685Z,100.00
2022-09-28T00:09:01.345Z,100.00
2022-09-28T00:11:29.691Z,100.00
2022-09-28T00:14:02.120Z,100.00
2022-09-28T00:16:34.638Z,100.00
2022-09-28T00:19:05.210Z,100.00
2022-09-28T00:21:36.623Z,100.00
2022-09-28T00:24:17.058Z,100.00
2022-09-28T00:26:50.041Z,100.00
2022-09-28T00:29:37.062Z,100.00
2022-09-28T00:32:11.299Z,100.00
2022-09-28T00:34:43.386Z,100.00
2022-09-28T00:37:12.749Z,100.00
2022-09-28T00:39:42.500Z,100.00
2022-09-28T00:42:19.929Z,100.00
2022-09-28T00:44:59.231Z,100.00
2022-09-28T00:47:49.567Z,100.00
2022-09-28T00:50:30.227Z,100.00
2022-09-28T00:53:16.227Z,100.00
2022-09-28T00:55:54.891Z,100.00
2022-09-28T00:58:30.350Z,100.00
2022-09-28T01:01:00.507Z,100.00
2022-09-28T01:03:29.084Z,99.96
2022-09-28T01:06:01.979Z,99.68
2022-09-28T01:08:32.711Z,99.73
2022-09-28T01:11:01.122Z,99.61
2022-09-28T01:13:33.310Z,99.76
2022-09-28T01:16:20.726Z,100.00
2022-09-28T01:18:51.334Z,99.87
2022-09-28T01:21:24.746Z,99.87
2022-09-28T01:24:14.740Z,100.00
2022-09-28T01:26:49.962Z,100.00
2022-09-28T01:29:30.129Z,100.00
2022-09-28T01:32:33.167Z,100.00
2022-09-28T01:35:20.979Z,100.00
2022-09-28T01:38:29.151Z,100.00
2022-09-28T01:41:00.470Z,100.00
2022-09-28T01:43:30.473Z,100.00
2022-09-28T01:46:19.739Z,100.00
2022-09-28T01:48:58.825Z,100.00
2022-09-28T01:51:43.242Z,100.00
2022-09-28T01:54:26.801Z,100.00
2022-09-28T01:57:03.061Z,100.00
2022-09-28T01:59:35.593Z,100.00
2022-09-28T02:02:12.411Z,100.00
2022-09-28T02:04:47.774Z,100.00
2022-09-28T02:07:26.275Z,100.00
2022-09-28T02:10:01.074Z,100.00
2022-09-28T02:12:46.712Z,100.00
2022-09-28T02:15:17.730Z,100.00
2022-09-28T02:17:48.216Z,100.00
2022-09-28T02:20:18.641Z,100.00
2022-09-28T02:22:53.416Z,100.00
2022-09-28T02:25:45.643Z,100.00
2022-09-28T02:28:13.955Z,100.00
2022-09-28T02:30:44.898Z,100.00
2022-09-28T02:33:28.042Z,100.00
2022-09-28T02:35:57.383Z,100.00
2022-09-28T02:38:26.722Z,100.00
2022-09-28T02:41:04.269Z,100.00
2022-09-28T02:43:50.793Z,100.00
2022-09-28T02:46:36.490Z,100.00
2022-09-28T02:49:22.326Z,100.00
2022-09-28T02:52:14.008Z,100.00
2022-09-28T02:55:04.335Z,100.00
2022-09-28T02:57:49.233Z,100.00
2022-09-28T03:00:22.988Z,100.00
2022-09-28T03:03:00.573Z,100.00
2022-09-28T03:05:54.380Z,100.00
2022-09-28T03:08:26.064Z,100.00
2022-09-28T03:11:17.854Z,100.00
2022-09-28T03:13:47.763Z,100.00
2022-09-28T03:16:18.593Z,100.00
2022-09-28T03:18:48.838Z,100.00
2022-09-28T03:21:16.998Z,100.00
2022-09-28T03:23:47.028Z,100.00
2022-09-28T03:26:17.699Z,100.00
2022-09-28T03:28:46.644Z,100.00
2022-09-28T03:31:18.895Z,100.00
2022-09-28T03:33:47.796Z,100.00
2022-09-28T03:36:16.167Z,100.00
2022-09-28T03:38:44.636Z,100.00
2022-09-28T03:41:12.214Z,100.00
2022-09-28T03:43:42.142Z,100.00
2022-09-28T03:46:10.147Z,100.00
2022-09-28T03:48:43.983Z,100.00
2022-09-28T03:51:14.168Z,100.00
2022-09-28T03:53:42.107Z,100.00
2022-09-28T03:56:15.302Z,100.00
2022-09-28T03:58:43.426Z,100.00
2022-09-28T04:01:16.783Z,100.00
2022-09-28T04:03:47.081Z,100.00
2022-09-28T04:06:15.043Z,100.00
2022-09-28T04:08:43.129Z,100.00
2022-09-28T04:11:10.982Z,100.00
2022-09-28T04:13:38.969Z,100.00
2022-09-28T04:16:11.467Z,100.00
2022-09-28T04:18:39.901Z,100.00
2022-09-28T04:21:21.281Z,100.00
2022-09-28T04:23:58.985Z,100.00
2022-09-28T04:26:28.005Z,100.00
2022-09-28T04:29:13.774Z,100.00
2022-09-28T04:31:52.046Z,100.00
2022-09-28T04:34:23.447Z,100.00
2022-09-28T04:36:51.499Z,100.00
2022-09-28T04:39:20.074Z,100.00
2022-09-28T04:41:51.001Z,100.00
2022-09-28T04:44:18.633Z,100.00
2022-09-28T04:46:48.280Z,100.00
2022-09-28T04:49:31.142Z,100.00
2022-09-28T04:52:26.864Z,100.00
2022-09-28T04:54:55.002Z,100.00
2022-09-28T04:57:24.188Z,100.00
2022-09-28T04:59:51.569Z,100.00
2022-09-28T05:02:19.986Z,100.00
2022-09-28T05:05:25.682Z,100.00
2022-09-28T05:08:09.675Z,100.00
2022-09-28T05:10:40.107Z,100.00
2022-09-28T05:13:08.793Z,100.00
2022-09-28T05:15:38.066Z,100.00
2022-09-28T05:18:06.445Z,100.00
2022-09-28T05:20:48.513Z,100.00
2022-09-28T05:23:16.639Z,100.00
2022-09-28T05:25:45.461Z,100.00
2022-09-28T05:28:25.004Z,100.00
2022-09-28T05:31:11.416Z,100.00
2022-09-28T05:34:06.190Z,100.00
2022-09-28T05:36:34.164Z,100.00
2022-09-28T05:39:03.676Z,100.00
2022-09-28T05:41:31.337Z,100.00
2022-09-28T05:44:00.540Z,100.00
2022-09-28T05:46:29.603Z,100.00
2022-09-28T05:49:00.011Z,100.00
2022-09-28T05:51:27.926Z,100.00
2022-09-28T05:53:56.063Z,100.00
2022-09-28T05:56:25.447Z,99.79
2022-09-28T05:58:53.744Z,99.94
2022-09-28T06:01:22.920Z,99.73
2022-09-28T06:03:50.628Z,99.96
2022-09-28T06:06:18.618Z,99.78
2022-09-28T06:08:48.124Z,99.59
2022-09-28T06:11:33.798Z,99.61
2022-09-28T06:14:07.340Z,99.27
2022-09-28T06:16:38.202Z,98.92
2022-09-28T06:19:08.762Z,99.00
2022-09-28T06:21:54.546Z,98.34
2022-09-28T06:24:22.232Z,97.51
2022-09-28T06:26:49.415Z,95.43
2022-09-28T06:29:19.646Z,93.72
2022-09-28T06:31:47.975Z,93.10
2022-09-28T06:34:15.589Z,92.79
2022-09-28T06:36:44.584Z,92.14
2022-09-28T06:39:12.254Z,92.48
2022-09-28T06:41:41.552Z,93.07
2022-09-28T06:44:17.145Z,89.60
2022-09-28T06:46:52.046Z,86.78
2022-09-28T06:49:55.765Z,85.39
2022-09-28T06:52:50.245Z,83.07
2022-09-28T06:55:42.579Z,81.99
2022-09-28T06:58:12.208Z,76.55
2022-09-28T07:00:40.881Z,75.08
2022-09-28T07:03:11.872Z,75.39
2022-09-28T07:05:59.770Z,75.06
2022-09-28T07:09:28.342Z,74.00
2022-09-28T07:12:13.076Z,75.41
2022-09-28T07:15:01.557Z,75.56
2022-09-28T07:17:29.419Z,73.31
2022-09-28T07:20:10.448Z,71.82
2022-09-28T07:22:44.713Z,71.65
2022-09-28T07:25:18.005Z,73.57
2022-09-28T07:28:02.423Z,76.16
2022-09-28T07:30:48.732Z,76.75
2022-09-28T07:33:40.010Z,76.34
2022-09-28T07:36:34.561Z,79.18
2022-09-28T07:39:02.947Z,79.27
2022-09-28T07:41:33.683Z,79.20
2022-09-28T07:44:06.530Z,80.75
2022-09-28T07:46:36.907Z,80.84
2022-09-28T07:49:23.486Z,78.55
2022-09-28T07:52:00.151Z,75.98
2022-09-28T07:54:27.458Z,75.98
2022-09-28T07:57:23.874Z,75.28
2022-09-28T08:00:10.784Z,73.94
2022-09-28T08:02:46.049Z,74.61
2022-09-28T08:05:17.628Z,73.68
2022-09-28T08:07:45.057Z,73.17
2022-09-28T08:10:12.749Z,73.28
2022-09-28T08:13:03.229Z,72.33
2022-09-28T08:15:38.236Z,71.29
2022-09-28T08:18:28.998Z,71.02
2022-09-28T08:21:15.233Z,69.65
2022-09-28T08:23:43.482Z,70.25
2022-09-28T08:26:15.369Z,68.21
2022-09-28T08:28:44.989Z,68.54
2022-09-28T08:31:41.521Z,68.88
2022-09-28T08:34:13.942Z,68.71
2022-09-28T08:36:59.878Z,67.50
2022-09-28T08:39:41.823Z,67.67
2022-09-28T08:42:35.327Z,67.15
2022-09-28T08:45:25.676Z,67.33
2022-09-28T08:49:23.827Z,66.53
2022-09-28T08:52:18.367Z,63.54
2022-09-28T08:55:04.289Z,64.50
2022-09-28T08:57:56.179Z,57.46
2022-09-28T09:00:39.505Z,56.43
2022-09-28T09:03:14.182Z,55.04
2022-09-28T09:06:22.491Z,54.87
2022-09-28T09:09:05.368Z,53.81
2022-09-28T09:12:13.977Z,53.78
2022-09-28T09:14:53.532Z,54.68
2022-09-28T09:17:43.689Z,55.55
2022-09-28T09:20:45.091Z,55.60
2022-09-28T09:23:17.607Z,56.11
2022-09-28T09:25:54.402Z,55.18
2022-09-28T09:28:44.499Z,53.27
2022-09-28T09:31:21.954Z,53.86
2022-09-28T09:34:20.511Z,52.21
2022-09-28T09:37:16.499Z,52.52
2022-09-28T09:39:50.930Z,52.58
2022-09-28T09:42:58.346Z,52.44
2022-09-28T09:45:54.213Z,52.06
2022-09-28T09:49:03.447Z,52.04
2022-09-28T09:51:59.214Z,51.60
2022-09-28T09:54:50.434Z,52.71
2022-09-28T09:57:41.550Z,52.70
2022-09-28T10:00:27.519Z,53.57
2022-09-28T10:03:03.589Z,53.13
2022-09-28T10:05:36.858Z,52.62
2022-09-28T10:08:14.871Z,53.41
2022-09-28T10:10:54.976Z,54.12
2022-09-28T10:13:22.996Z,53.94
2022-09-28T10:15:51.040Z,52.31
2022-09-28T10:18:23.049Z,52.58
2022-09-28T10:21:16.726Z,52.50
2022-09-28T10:24:02.255Z,52.73
2022-09-28T10:26:38.861Z,53.73
2022-09-28T10:29:17.416Z,54.11
2022-09-28T10:31:50.288Z,55.01
2022-09-28T10:34:30.021Z,55.89
2022-09-28T10:37:06.365Z,56.44
2022-09-28T10:39:52.965Z,56.08
2022-09-28T10:42:27.198Z,56.90
2022-09-28T10:45:24.140Z,57.32
2022-09-28T10:47:51.502Z,56.97
2022-09-28T10:50:27.572Z,56.52
2022-09-28T10:53:19.922Z,56.54
2022-09-28T10:56:21.841Z,55.62
2022-09-28T10:58:53.223Z,54.90
2022-09-28T11:01:32.611Z,53.30
2022-09-28T11:04:07.576Z,54.03
2022-09-28T11:06:39.840Z,52.77
2022-09-28T11:09:29.845Z,49.67
2022-09-28T11:12:02.786Z,47.77
2022-09-28T11:14:42.165Z,45.12
2022-09-28T11:17:32.421Z,43.97
2022-09-28T11:20:21.495Z,42.70
2022-09-28T11:22:57.791Z,40.85
2022-09-28T11:25:29.079Z,41.71
2022-09-28T11:28:00.795Z,39.00
2022-09-28T11:30:51.737Z,38.51
2022-09-28T11:33:28.712Z,36.66
2022-09-28T11:36:18.909Z,36.66
2022-09-28T11:39:02.242Z,37.46
2022-09-28T11:41:54.455Z,39.06
2022-09-28T11:44:31.010Z,38.82
2022-09-28T11:47:28.022Z,39.88
2022-09-28T11:50:29.281Z,40.37
2022-09-28T11:53:24.571Z,39.91
2022-09-28T11:56:14.357Z,38.90
2022-09-28T11:58:46.764Z,37.53
2022-09-28T12:01:48.676Z,36.78
2022-09-28T12:04:46.058Z,35.47
2022-09-28T12:07:35.551Z,34.33
2022-09-28T12:10:14.421Z,33.59
2022-09-28T12:13:40.119Z,34.71
2022-09-28T12:17:03.672Z,34.73
2022-09-28T12:19:31.900Z,33.92
2022-09-28T12:22:32.869Z,34.17
2022-09-28T12:25:03.593Z,35.91
2022-09-28T12:28:01.856Z,36.85
2022-09-28T12:30:35.094Z,37.21
2022-09-28T12:33:08.913Z,36.68
2022-09-28T12:35:44.057Z,35.98
2022-09-28T12:39:08.462Z,35.18
2022-09-28T12:41:46.823Z,35.48
2022-09-28T12:44:42.201Z,35.68
2022-09-28T12:47:41.721Z,35.98
2022-09-28T12:50:38.788Z,37.50
2022-09-28T12:53:41.210Z,38.18
2022-09-28T12:56:15.690Z,37.98
2022-09-28T12:59:12.379Z,38.63
2022-09-28T13:01:58.901Z,38.93
2022-09-28T13:04:48.634Z,39.66
2022-09-28T13:07:27.618Z,38.88
2022-09-28T13:09:58.094Z,38.70
2022-09-28T13:12:46.423Z,38.41
2022-09-28T13:15:16.605Z,37.13
2022-09-28T13:18:14.579Z,37.09
2022-09-28T13:20:49.767Z,38.48
2022-09-28T13:24:00.723Z,38.97
2022-09-28T13:26:40.183Z,40.08
2022-09-28T13:29:14.102Z,41.18
2022-09-28T13:31:59.566Z,41.44
2022-09-28T13:34:33.122Z,42.45
2022-09-28T13:37:25.333Z,43.08
2022-09-28T13:39:52.658Z,43.74
2022-09-28T13:42:24.318Z,44.02
2022-09-28T13:45:20.967Z,44.03
2022-09-28T13:48:10.403Z,45.60
2022-09-28T13:50:56.010Z,46.66
2022-09-28T13:53:44.763Z,46.04
2022-09-28T13:56:37.619Z,46.04
2022-09-28T13:59:14.178Z,45.70
2022-09-28T14:01:55.430Z,46.47
2022-09-28T14:04:43.906Z,47.24
2022-09-28T14:07:19.747Z,48.47
2022-09-28T14:10:07.501Z,48.20
2022-09-28T14:12:34.655Z,49.41
2022-09-28T14:15:06.615Z,49.12
2022-09-28T14:17:52.560Z,49.49
2022-09-28T14:20:22.773Z,50.72
2022-09-28T14:22:57.519Z,50.55
2022-09-28T14:25:27.942Z,51.00
2022-09-28T14:28:27.154Z,52.08
2022-09-28T14:30:59.034Z,51.83
2022-09-28T14:33:28.436Z,51.74
2022-09-28T14:36:07.492Z,52.23
2022-09-28T14:39:06.991Z,52.48
2022-09-28T14:41:41.417Z,52.97
2022-09-28T14:44:14.037Z,52.55
2022-09-28T14:46:46.151Z,52.48
2022-09-28T14:49:19.760Z,52.52
2022-09-28T14:51:52.870Z,52.33
2022-09-28T14:54:26.087Z,54.23
2022-09-28T14:56:53.470Z,54.42
2022-09-28T14:59:36.302Z,54.74
2022-09-28T15:02:14.597Z,54.37
2022-09-28T15:05:08.321Z,55.49
2022-09-28T15:07:51.424Z,55.16
2022-09-28T15:10:27.513Z,54.98
2022-09-28T15:12:56.459Z,55.40
2022-09-28T15:15:36.778Z,55.59
2022-09-28T15:18:42.138Z,55.33
2022-09-28T15:21:13.304Z,55.47
2022-09-28T15:23:43.513Z,55.60
2022-09-28T15:26:21.838Z,55.54
2022-09-28T15:28:49.038Z,56.11
2022-09-28T15:31:23.934Z,56.94
2022-09-28T15:34:09.705Z,57.15
2022-09-28T15:36:42.009Z,59.15
2022-09-28T15:39:39.791Z,59.47
2022-09-28T15:42:06.976Z,59.81
2022-09-28T15:44:36.668Z,60.14
2022-09-28T15:47:24.788Z,60.86
2022-09-28T15:50:00.980Z,61.48
2022-09-28T15:52:46.723Z,61.12
2022-09-28T15:55:28.889Z,63.20
2022-09-28T15:58:10.484Z,63.91
2022-09-28T16:00:39.373Z,65.22
2022-09-28T16:03:06.714Z,63.51
2022-09-28T16:05:46.351Z,62.66
2022-09-28T16:08:24.225Z,63.94
2022-09-28T16:11:26.096Z,65.53
2022-09-28T16:14:08.396Z,66.08
2022-09-28T16:16:46.359Z,66.09
2022-09-28T16:19:29.249Z,64.14
2022-09-28T16:21:59.073Z,63.30
2022-09-28T16:24:27.931Z,66.64
2022-09-28T16:26:56.467Z,69.87
2022-09-28T16:29:40.035Z,66.15
2022-09-28T16:32:25.994Z,66.69
2022-09-28T16:35:11.244Z,71.81
2022-09-28T16:37:43.181Z,73.75
2022-09-28T16:40:12.997Z,74.12
2022-09-28T16:42:48.681Z,70.24
2022-09-28T16:45:19.695Z,70.39
2022-09-28T16:47:52.329Z,70.76
2022-09-28T16:50:20.991Z,68.54
2022-09-28T16:53:35.508Z,68.62
2022-09-28T16:56:04.352Z,76.70
2022-09-28T16:58:31.592Z,78.33
2022-09-28T17:01:00.007Z,75.22
2022-09-28T17:03:28.473Z,75.82
2022-09-28T17:05:56.299Z,76.70
2022-09-28T17:08:25.115Z,78.17
2022-09-28T17:11:22.575Z,78.88
2022-09-28T17:13:48.250Z,77.00
2022-09-28T17:16:18.108Z,75.50
2022-09-28T17:18:45.659Z,74.11
2022-09-28T17:21:16.066Z,74.04
2022-09-28T17:23:44.751Z,74.16
2022-09-28T17:26:33.054Z,77.97
2022-09-28T17:29:01.605Z,78.17
2022-09-28T17:31:29.505Z,81.07
2022-09-28T17:33:56.733Z,83.53
2022-09-28T17:36:25.416Z,84.24
2022-09-28T17:38:52.868Z,83.61
2022-09-28T17:41:20.982Z,84.96
2022-09-28T17:43:49.204Z,84.47
2022-09-28T17:46:27.832Z,85.12
2022-09-28T17:48:58.934Z,85.68
2022-09-28T17:51:32.023Z,84.96
2022-09-28T17:54:00.658Z,85.56
2022-09-28T17:56:32.061Z,84.48
2022-09-28T17:59:05.403Z,84.89
2022-09-28T18:01:34.124Z,86.26
2022-09-28T18:04:04.504Z,84.97
2022-09-28T18:06:36.595Z,85.89
2022-09-28T18:09:05.041Z,87.60
2022-09-28T18:11:36.569Z,86.40
2022-09-28T18:14:06.728Z,87.78
2022-09-28T18:16:36.552Z,88.16
2022-09-28T18:19:03.652Z,88.79
2022-09-28T18:21:33.555Z,88.61
2022-09-28T18:24:01.211Z,87.72
2022-09-28T18:26:28.872Z,87.31
2022-09-28T18:28:55.991Z,86.97
2022-09-28T18:31:23.528Z,85.59
2022-09-28T18:33:50.631Z,85.34
2022-09-28T18:36:17.684Z,87.70
2022-09-28T18:38:44.827Z,87.24
2022-09-28T18:41:15.114Z,88.11
2022-09-28T18:43:48.297Z,86.96
2022-09-28T18:46:17.660Z,86.03
2022-09-28T18:48:46.949Z,84.15
2022-09-28T18:51:14.079Z,82.95
2022-09-28T18:53:41.247Z,85.00
2022-09-28T18:56:11.733Z,84.68
2022-09-28T18:58:40.687Z,85.05
2022-09-28T19:01:32.162Z,84.99
2022-09-28T19:04:04.728Z,84.43
2022-09-28T19:06:33.855Z,84.44
2022-09-28T19:09:01.001Z,84.16
2022-09-28T19:11:28.824Z,84.80
2022-09-28T19:13:56.334Z,85.30
2022-09-28T19:16:28.779Z,85.70
2022-09-28T19:18:57.998Z,86.52
2022-09-28T19:21:26.688Z,86.23
2022-09-28T19:23:54.917Z,85.69
2022-09-28T19:26:25.146Z,83.98
2022-09-28T19:28:52.844Z,82.90
2022-09-28T19:31:21.226Z,83.09
2022-09-28T19:33:49.496Z,83.04
2022-09-28T19:36:23.202Z,82.88
2022-09-28T19:38:51.854Z,83.34
2022-09-28T19:41:43.779Z,85.13
2022-09-28T19:44:19.457Z,83.93
2022-09-28T19:46:46.864Z,85.84
2022-09-28T19:49:21.606Z,85.61
2022-09-28T19:52:11.572Z,85.50
2022-09-28T19:54:37.968Z,86.89
2022-09-28T19:57:07.089Z,87.07
2022-09-28T19:59:36.209Z,86.82
2022-09-28T20:02:07.566Z,85.93
2022-09-28T20:04:34.970Z,87.97
2022-09-28T20:07:03.442Z,88.31
2022-09-28T20:09:32.453Z,87.15
2022-09-28T20:11:59.820Z,86.80
2022-09-28T20:14:32.874Z,87.56
2022-09-28T20:17:03.668Z,87.29
2022-09-28T20:19:30.933Z,86.91
2022-09-28T20:22:02.313Z,86.86
2022-09-28T20:24:30.911Z,85.39
2022-09-28T20:26:58.564Z,84.55
2022-09-28T20:29:26.385Z,85.44
2022-09-28T20:31:53.700Z,86.34
2022-09-28T20:34:21.645Z,86.18
2022-09-28T20:36:49.207Z,87.09
2022-09-28T20:39:17.415Z,85.72
2022-09-28T20:41:46.778Z,85.93
2022-09-28T20:44:14.037Z,85.30
2022-09-28T20:46:43.528Z,85.29
2022-09-28T20:49:11.111Z,87.02
2022-09-28T20:51:38.351Z,88.32
2022-09-28T20:54:05.850Z,86.72
2022-09-28T20:56:37.800Z,87.76
2022-09-28T20:59:11.103Z,87.53
2022-09-28T21:01:39.499Z,85.11
2022-09-28T21:04:08.887Z,86.55
2022-09-28T21:06:39.474Z,87.10
2022-09-28T21:09:08.239Z,88.07
2022-09-28T21:11:36.438Z,87.36
2022-09-28T21:14:06.375Z,87.91
2022-09-28T21:16:35.163Z,88.56
2022-09-28T21:19:03.109Z,88.44
2022-09-28T21:21:31.594Z,88.01
2022-09-28T21:23:59.172Z,87.87
2022-09-28T21:26:30.911Z,88.68
2022-09-28T21:29:00.898Z,88.95
2022-09-28T21:31:38.769Z,88.65
2022-09-28T21:34:06.859Z,88.59
2022-09-28T21:36:34.395Z,88.60
2022-09-28T21:39:01.632Z,89.09
2022-09-28T21:41:29.473Z,88.77
2022-09-28T21:43:57.449Z,87.88
2022-09-28T21:46:25.175Z,87.36
2022-09-28T21:48:55.828Z,88.71
2022-09-28T21:51:24.210Z,89.03
2022-09-28T21:53:52.295Z,87.83
2022-09-28T21:56:20.387Z,90.59
2022-09-28T21:58:47.921Z,90.16
2022-09-28T22:01:25.084Z,89.73
2022-09-28T22:03:55.051Z,89.89
2022-09-28T22:06:24.582Z,90.39
2022-09-28T22:08:52.556Z,90.90
2022-09-28T22:11:23.611Z,91.09
2022-09-28T22:13:54.272Z,90.79
2022-09-28T22:16:26.147Z,89.61
2022-09-28T22:18:53.989Z,90.11
2022-09-28T22:21:33.113Z,92.45
2022-09-28T22:24:04.457Z,92.81
2022-09-28T22:26:33.636Z,91.80
2022-09-28T22:29:04.596Z,92.67
2022-09-28T22:31:35.439Z,93.58
2022-09-28T22:34:04.525Z,92.53
2022-09-28T22:36:33.345Z,94.10
2022-09-28T22:39:01.505Z,94.59
2022-09-28T22:41:29.708Z,94.96
2022-09-28T22:43:58.875Z,93.78
2022-09-28T22:46:28.876Z,92.30
2022-09-28T22:48:58.523Z,91.41
2022-09-28T22:51:27.982Z,93.81
2022-09-28T22:53:56.427Z,93.14
2022-09-28T22:56:24.881Z,92.95
2022-09-28T22:58:52.573Z,93.64
2022-09-28T23:01:23.196Z,94.40
2022-09-28T23:03:53.327Z,95.39
2022-09-28T23:06:24.233Z,94.48
2022-09-28T23:08:53.524Z,93.54
2022-09-28T23:11:21.927Z,93.62
2022-09-28T23:13:54.124Z,95.63
2022-09-28T23:16:24.467Z,96.19
2022-09-28T23:18:55.221Z,95.85
2022-09-28T23:21:25.749Z,94.70
2022-09-28T23:23:56.004Z,95.15
2022-09-28T23:26:27.030Z,95.66
2022-09-28T23:28:55.545Z,96.46
2022-09-28T23:31:26.778Z,96.44
2022-09-28T23:34:04.990Z,95.62
2022-09-28T23:36:33.584Z,96.68
2022-09-28T23:39:02.828Z,97.78
2022-09-28T23:41:30.517Z,98.95
2022-09-28T23:43:59.484Z,98.79
2022-09-28T23:46:28.451Z,98.38
2022-09-28T23:48:58.016Z,97.68
2022-09-28T23:51:26.104Z,96.49
2022-09-28T23:53:55.115Z,96.21
2022-09-28T23:56:24.296Z,96.03
2022-09-28T23:58:52.585Z,94.50
